createdAt,value
2022-10-08T14:35:38.598Z,80.70
2022-10-08T14:39:01.165Z,80.30
2022-10-08T14:42:23.286Z,81.90
2022-10-08T14:45:45.528Z,80.20
2022-10-08T14:49:07.874Z,80.50
2022-10-08T14:52:30.033Z,80.40
2022-10-08T14:56:10.987Z,80.20
2022-10-08T14:59:39.083Z,81.00
2022-10-08T15:03:02.801Z,81.00
2022-10-08T15:06:25.057Z,80.70
2022-10-08T15:09:47.260Z,80.10
2022-10-08T15:13:09.735Z,80.40
2022-10-08T15:16:31.956Z,80.60
2022-10-08T15:19:54.185Z,80.90
2022-10-08T15:23:17.729Z,81.10
2022-10-08T15:26:39.908Z,81.10
2022-10-08T15:30:02.145Z,80.90
2022-10-08T15:33:24.241Z,81.10
2022-10-08T15:36:47.458Z,81.20
2022-10-08T15:40:09.895Z,81.10
2022-10-08T15:43:34.333Z,81.40
2022-10-08T15:47:02.540Z,81.10
2022-10-08T15:50:24.754Z,81.40
2022-10-08T15:53:47.029Z,81.30
2022-10-08T15:57:11.556Z,81.20
2022-10-08T16:00:37.972Z,81.20
2022-10-08T16:04:00.473Z,81.60
2022-10-08T16:07:22.618Z,81.20
2022-10-08T16:10:44.751Z,81.10
2022-10-08T16:14:11.085Z,81.10
2022-10-08T16:17:33.351Z,81.30
2022-10-08T16:20:55.913Z,81.20
2022-10-08T16:24:18.234Z,81.40
2022-10-08T16:27:40.402Z,82.20
2022-10-08T16:31:03.849Z,81.30
2022-10-08T16:34:28.367Z,81.10
2022-10-08T16:37:52.186Z,80.70
2022-10-08T16:41:24.355Z,80.30
2022-10-08T16:44:46.581Z,79.80
2022-10-08T16:48:08.735Z,81.10
2022-10-08T16:51:34.184Z,80.80
2022-10-08T16:54:56.368Z,81.20
2022-10-08T16:58:18.477Z,80.60
2022-10-08T17:01:43.764Z,81.00
2022-10-08T17:05:07.083Z,80.60
2022-10-08T17:08:30.091Z,79.50
2022-10-08T17:11:52.566Z,79.30
2022-10-08T17:15:14.797Z,80.70
2022-10-08T17:18:38.095Z,80.80
2022-10-08T17:22:00.300Z,80.60
2022-10-08T17:25:22.454Z,80.00
2022-10-08T17:28:46.852Z,80.50
2022-10-08T17:32:09.297Z,80.20
2022-10-08T17:35:31.389Z,79.80
2022-10-08T17:38:58.397Z,80.10
2022-10-08T17:42:20.501Z,80.00
2022-10-08T17:45:42.634Z,80.50
2022-10-08T17:49:06.096Z,80.40
2022-10-08T17:52:28.234Z,79.60
2022-10-08T17:56:01.025Z,80.40
2022-10-08T17:59:23.184Z,79.90
2022-10-08T18:02:46.643Z,79.80
2022-10-08T18:06:11.475Z,80.70
2022-10-08T18:09:33.610Z,79.80
2022-10-08T18:12:55.951Z,79.90
2022-10-08T18:16:19.600Z,80.10
2022-10-08T18:19:41.742Z,81.10
2022-10-08T18:23:08.266Z,81.80
2022-10-08T18:26:34.401Z,82.00
2022-10-08T18:29:56.496Z,82.30
2022-10-08T18:33:21.690Z,82.50
2022-10-08T18:36:47.430Z,82.80
2022-10-08T18:40:09.792Z,82.90
2022-10-08T18:43:31.902Z,83.00
2022-10-08T18:46:54.272Z,83.00
2022-10-08T18:50:16.494Z,83.00
2022-10-08T18:53:40.405Z,83.50
2022-10-08T18:57:02.534Z,84.00
2022-10-08T19:00:24.634Z,84.60
2022-10-08T19:03:48.745Z,85.10
2022-10-08T19:07:11.147Z,85.70
2022-10-08T19:10:33.333Z,86.40
2022-10-08T19:13:55.478Z,85.40
2022-10-08T19:17:17.582Z,85.50
2022-10-08T19:20:39.708Z,86.10
2022-10-08T19:24:03.271Z,85.70
2022-10-08T19:27:25.373Z,85.80
2022-10-08T19:30:47.664Z,85.70
2022-10-08T19:34:13.383Z,85.60
2022-10-08T19:37:35.622Z,85.80
2022-10-08T19:40:58.068Z,85.60
2022-10-08T19:44:21.017Z,85.80
2022-10-08T19:47:43.212Z,85.60
2022-10-08T19:51:07.920Z,86.40
2022-10-08T19:54:30.046Z,85.40
2022-10-08T19:57:52.451Z,84.90
2022-10-08T20:01:26.169Z,85.20
2022-10-08T20:04:48.387Z,85.30
2022-10-08T20:08:10.482Z,86.10
2022-10-08T20:11:33.493Z,85.30
2022-10-08T20:14:55.601Z,85.10
2022-10-08T20:18:17.686Z,85.40
2022-10-08T20:21:40.333Z,85.60
